createdAt,value
2018-03-28T00:01:46.018Z,3.8
2018-03-28T00:04:45.966Z,3.8
2018-03-28T00:07:45.936Z,3.8
2018-03-28T00:10:46.118Z,3.8
2018-03-28T00:13:45.949Z,3.8
2018-03-28T00:16:45.928Z,3.8
2018-03-28T00:19:45.968Z,3.8
2018-03-28T00:22:45.929Z,3.8
2018-03-28T00:25:45.933Z,3.8
2018-03-28T00:28:45.963Z,3.8
2018-03-28T00:31:46.014Z,3.8
2018-03-28T00:34:46.014Z,3.8
2018-03-28T00:37:45.948Z,3.8
2018-03-28T00:40:45.954Z,3.8
2018-03-28T00:43:45.952Z,3.8
2018-03-28T00:46:45.975Z,3.8
2018-03-28T00:49:45.921Z,3.8
2018-03-28T00:52:45.941Z,3.8
2018-03-28T00:55:45.985Z,3.8
2018-03-28T00:58:45.920Z,3.8
2018-03-28T01:01:45.912Z,3.6
2018-03-28T01:04:45.929Z,3.6
2018-03-28T01:07:45.955Z,3.6
2018-03-28T01:10:45.916Z,3.6
2018-03-28T01:13:45.987Z,3.6
2018-03-28T01:16:45.932Z,3.6
2018-03-28T01:19:45.917Z,3.6
2018-03-28T01:22:45.935Z,3.6
2018-03-28T01:25:45.963Z,3.6
2018-03-28T01:28:45.955Z,3.6
2018-03-28T01:31:45.910Z,3.6
2018-03-28T01:34:45.910Z,3.6
2018-03-28T01:37:45.909Z,3.6
2018-03-28T01:40:45.940Z,3.6
2018-03-28T01:43:45.888Z,3.6
2018-03-28T01:46:45.912Z,3.6
2018-03-28T01:49:45.919Z,3.6
2018-03-28T01:52:46.055Z,3.6
2018-03-28T01:55:45.975Z,3.6
2018-03-28T01:58:45.927Z,3.6
2018-03-28T02:01:45.903Z,3.4
2018-03-28T02:04:45.907Z,3.4
2018-03-28T02:07:45.919Z,3.4
2018-03-28T02:10:45.999Z,3.4
2018-03-28T02:13:45.919Z,3.4
2018-03-28T02:16:45.907Z,3.4
2018-03-28T02:19:45.914Z,3.4
2018-03-28T02:22:45.932Z,3.4
2018-03-28T02:25:45.934Z,3.4
2018-03-28T02:28:45.892Z,3.4
2018-03-28T02:31:45.929Z,3.4
2018-03-28T02:34:45.935Z,3.4
2018-03-28T02:37:45.972Z,3.4
2018-03-28T02:40:45.931Z,3.4
2018-03-28T02:43:45.945Z,3.4
2018-03-28T02:46:46.074Z,3.4
2018-03-28T02:49:45.987Z,3.4
2018-03-28T02:52:45.911Z,3.4
2018-03-28T02:55:45.989Z,3.4
2018-03-28T02:58:45.910Z,3.4
2018-03-28T03:01:46.082Z,3.2
2018-03-28T03:04:45.968Z,3.2
2018-03-28T03:07:45.936Z,3.2
2018-03-28T03:10:45.870Z,3.2
2018-03-28T03:13:46.417Z,3.2
2018-03-28T03:16:45.931Z,3.2
2018-03-28T03:19:45.889Z,3.2
2018-03-28T03:22:45.887Z,3.2
2018-03-28T03:25:45.868Z,3.2
2018-03-28T03:28:45.881Z,3.2
2018-03-28T03:31:45.938Z,3.2
2018-03-28T03:34:45.923Z,3.2
2018-03-28T03:37:45.894Z,3.2
2018-03-28T03:40:45.866Z,3.2
2018-03-28T03:43:45.930Z,3.2
2018-03-28T03:46:45.870Z,3.2
2018-03-28T03:49:45.892Z,3.2
2018-03-28T03:52:46.050Z,3.2
2018-03-28T03:55:45.877Z,3.2
2018-03-28T03:58:46.553Z,3.2
2018-03-28T04:01:45.892Z,3
2018-03-28T04:04:45.871Z,3
2018-03-28T04:07:45.847Z,3
2018-03-28T04:10:45.845Z,3
2018-03-28T04:13:45.850Z,3
2018-03-28T04:16:45.900Z,3
2018-03-28T04:19:45.847Z,3
2018-03-28T04:22:45.858Z,3
2018-03-28T04:25:45.852Z,3
2018-03-28T04:28:45.946Z,3
2018-03-28T04:31:45.889Z,3
2018-03-28T04:34:45.874Z,3
2018-03-28T04:37:45.918Z,3
2018-03-28T04:40:45.883Z,3
2018-03-28T04:43:46.627Z,3
2018-03-28T04:46:45.855Z,3
2018-03-28T04:49:45.906Z,3
2018-03-28T04:52:45.881Z,3
2018-03-28T04:55:46.632Z,3
2018-03-28T04:58:45.875Z,3
2018-03-28T05:01:45.853Z,2.9
2018-03-28T05:04:45.842Z,2.9
2018-03-28T05:07:45.854Z,2.9
2018-03-28T05:10:45.835Z,2.9
2018-03-28T05:13:45.869Z,2.9
2018-03-28T05:16:45.834Z,2.9
2018-03-28T05:19:45.839Z,2.9
2018-03-28T05:22:46.555Z,2.9
2018-03-28T05:25:45.858Z,2.9
2018-03-28T05:28:45.896Z,2.9
2018-03-28T05:31:45.855Z,2.9
2018-03-28T05:34:45.894Z,2.9
2018-03-28T05:37:45.860Z,2.9
2018-03-28T05:40:46.108Z,2.9
2018-03-28T05:43:45.826Z,2.9
2018-03-28T05:46:45.833Z,2.9
2018-03-28T05:49:46.133Z,2.9
2018-03-28T05:52:45.827Z,2.9
2018-03-28T05:55:45.820Z,2.9
2018-03-28T05:58:45.824Z,2.9
2018-03-28T06:01:45.844Z,2.8
2018-03-28T06:04:45.812Z,2.8
2018-03-28T06:07:45.819Z,2.8
2018-03-28T06:10:45.845Z,2.8
2018-03-28T06:13:45.904Z,2.8
2018-03-28T06:16:45.861Z,2.8
2018-03-28T06:19:45.815Z,2.8
2018-03-28T06:22:45.878Z,2.8
2018-03-28T06:25:45.843Z,2.8
2018-03-28T06:28:45.831Z,2.8
2018-03-28T06:31:45.847Z,2.8
2018-03-28T06:34:45.845Z,2.8
2018-03-28T06:37:45.868Z,2.8
2018-03-28T06:40:45.813Z,2.8
2018-03-28T06:43:45.868Z,2.8
2018-03-28T06:46:46.037Z,2.8
2018-03-28T06:49:45.811Z,2.8
2018-03-28T06:52:45.803Z,2.8
2018-03-28T06:55:45.801Z,2.8
2018-03-28T06:58:45.818Z,2.8
2018-03-28T07:01:45.816Z,2.7
2018-03-28T07:04:45.891Z,2.7
2018-03-28T07:07:45.818Z,2.7
2018-03-28T07:10:45.901Z,2.7
2018-03-28T07:13:45.797Z,2.7
2018-03-28T07:16:45.805Z,2.7
2018-03-28T07:19:45.932Z,2.7
2018-03-28T07:22:45.864Z,2.7
2018-03-28T07:25:45.793Z,2.7
2018-03-28T07:28:45.801Z,2.7
2018-03-28T07:31:45.848Z,2.7
2018-03-28T07:34:45.811Z,2.7
2018-03-28T07:37:45.801Z,2.7
2018-03-28T07:40:45.782Z,2.7
2018-03-28T07:43:45.867Z,2.7
2018-03-28T07:46:45.786Z,2.7
2018-03-28T07:49:45.820Z,2.7
2018-03-28T07:52:45.813Z,2.7
2018-03-28T07:55:45.988Z,2.7
2018-03-28T07:58:45.809Z,2.7
2018-03-28T08:01:45.808Z,2.8
2018-03-28T08:04:45.829Z,2.8
2018-03-28T08:07:45.797Z,2.8
2018-03-28T08:10:45.793Z,2.8
2018-03-28T08:13:45.787Z,2.8
2018-03-28T08:16:45.800Z,2.8
2018-03-28T08:19:45.839Z,2.8
2018-03-28T08:22:45.784Z,2.8
2018-03-28T08:25:46.603Z,2.8
2018-03-28T08:28:45.789Z,2.8
2018-03-28T08:31:45.773Z,2.8
2018-03-28T08:34:45.785Z,2.8
2018-03-28T08:37:45.775Z,2.8
2018-03-28T08:40:45.852Z,2.8
2018-03-28T08:43:45.758Z,2.8
2018-03-28T08:46:45.796Z,2.8
2018-03-28T08:49:46.576Z,2.8
2018-03-28T08:52:45.774Z,2.8
2018-03-28T08:55:45.779Z,2.8
2018-03-28T08:58:45.800Z,2.8
2018-03-28T09:01:45.828Z,2.9
2018-03-28T09:04:46.750Z,2.9
2018-03-28T09:07:45.781Z,2.9
2018-03-28T09:10:45.858Z,2.9
2018-03-28T09:13:45.995Z,2.9
2018-03-28T09:16:45.804Z,2.9
2018-03-28T09:19:45.755Z,2.9
2018-03-28T09:22:45.786Z,2.9
2018-03-28T09:25:45.778Z,2.9
2018-03-28T09:28:45.815Z,2.9
2018-03-28T09:31:45.868Z,2.9
2018-03-28T09:34:45.772Z,2.9
2018-03-28T09:37:46.350Z,2.9
2018-03-28T09:40:46.061Z,2.9
2018-03-28T09:43:45.764Z,2.9
2018-03-28T09:46:45.802Z,2.9
2018-03-28T09:49:45.752Z,2.9
2018-03-28T09:52:45.766Z,2.9
2018-03-28T09:55:45.868Z,2.9
2018-03-28T09:58:45.833Z,2.9
2018-03-28T10:01:45.782Z,3
2018-03-28T10:04:45.755Z,3
2018-03-28T10:07:45.798Z,3
2018-03-28T10:10:45.830Z,3
2018-03-28T10:13:45.764Z,3
2018-03-28T10:16:45.775Z,3
2018-03-28T10:19:45.852Z,3
2018-03-28T10:22:45.768Z,3
2018-03-28T10:25:45.763Z,3
2018-03-28T10:28:45.995Z,3
2018-03-28T10:31:45.806Z,3
2018-03-28T10:34:45.774Z,3
2018-03-28T10:37:45.775Z,3
2018-03-28T10:40:45.782Z,3
2018-03-28T10:43:45.763Z,3
2018-03-28T10:46:45.726Z,3
2018-03-28T10:49:45.741Z,3
2018-03-28T10:52:45.786Z,3
2018-03-28T10:55:45.745Z,3
2018-03-28T10:58:45.764Z,3
2018-03-28T11:01:45.800Z,3.1
2018-03-28T11:04:46.085Z,3.1
2018-03-28T11:07:45.953Z,3.1
2018-03-28T11:10:45.818Z,3.1
2018-03-28T11:13:45.754Z,3.1
2018-03-28T11:16:45.738Z,3.1
2018-03-28T11:19:46.138Z,3.1
2018-03-28T11:22:45.785Z,3.1
2018-03-28T11:25:45.797Z,3.1
2018-03-28T11:28:45.780Z,3.1
2018-03-28T11:31:45.831Z,3.1
2018-03-28T11:34:45.773Z,3.1
2018-03-28T11:37:45.734Z,3.1
2018-03-28T11:40:45.756Z,3.1
2018-03-28T11:43:45.752Z,3.1
2018-03-28T11:46:45.756Z,3.1
2018-03-28T11:49:45.790Z,3.1
2018-03-28T11:52:45.778Z,3.1
2018-03-28T11:55:45.723Z,3.1
2018-03-28T11:58:45.729Z,3.1
2018-03-28T12:01:45.750Z,3.2
2018-03-28T12:04:46.061Z,3.2
2018-03-28T12:07:45.720Z,3.2
2018-03-28T12:10:45.740Z,3.2
2018-03-28T12:13:45.755Z,3.2
2018-03-28T12:16:45.754Z,3.2
2018-03-28T12:19:45.807Z,3.2
2018-03-28T12:22:45.749Z,3.2
2018-03-28T12:25:45.722Z,3.2
2018-03-28T12:28:45.776Z,3.2
2018-03-28T12:31:45.772Z,3.2
2018-03-28T12:34:45.751Z,3.2
2018-03-28T12:37:45.694Z,3.2
2018-03-28T12:40:45.736Z,3.2
2018-03-28T12:43:45.713Z,3.2
2018-03-28T12:46:45.777Z,3.2
2018-03-28T12:49:47.070Z,3.2
2018-03-28T12:52:45.759Z,3.2
2018-03-28T12:55:45.751Z,3.2
2018-03-28T12:58:45.772Z,3.2
2018-03-28T13:01:45.690Z,3.3
2018-03-28T13:04:45.737Z,3.3
2018-03-28T13:07:46.010Z,3.3
2018-03-28T13:10:45.883Z,3.3
2018-03-28T13:13:45.704Z,3.3
2018-03-28T13:16:45.766Z,3.3
2018-03-28T13:19:45.759Z,3.3
2018-03-28T13:22:45.704Z,3.3
2018-03-28T13:25:45.705Z,3.3
2018-03-28T13:28:45.689Z,3.3
2018-03-28T13:31:45.707Z,3.3
2018-03-28T13:34:45.724Z,3.3
2018-03-28T13:37:45.745Z,3.3
2018-03-28T13:40:45.691Z,3.3
2018-03-28T13:43:45.748Z,3.3
2018-03-28T13:46:45.872Z,3.3
2018-03-28T13:49:45.684Z,3.3
2018-03-28T13:52:45.681Z,3.3
2018-03-28T13:55:45.725Z,3.3
2018-03-28T13:58:45.799Z,3.3
2018-03-28T14:01:45.879Z,3.3
2018-03-28T14:04:45.730Z,3.3
2018-03-28T14:07:45.721Z,3.3
2018-03-28T14:10:45.672Z,3.3
2018-03-28T14:13:45.686Z,3.3
2018-03-28T14:16:45.671Z,3.3
2018-03-28T14:19:45.668Z,3.3
2018-03-28T14:22:45.704Z,3.3
2018-03-28T14:25:45.717Z,3.3
2018-03-28T14:28:45.675Z,3.3
2018-03-28T14:31:45.657Z,3.3
2018-03-28T14:34:45.840Z,3.3
2018-03-28T14:37:45.669Z,3.3
2018-03-28T14:40:45.699Z,3.3
2018-03-28T14:43:45.691Z,3.3
2018-03-28T14:46:45.697Z,3.3
2018-03-28T14:49:45.685Z,3.3
2018-03-28T14:52:45.703Z,3.3
2018-03-28T14:55:45.673Z,3.3
2018-03-28T14:58:45.654Z,3.3
2018-03-28T15:01:45.661Z,3.3
2018-03-28T15:04:45.691Z,3.3
2018-03-28T15:07:45.713Z,3.3
2018-03-28T15:10:45.691Z,3.3
2018-03-28T15:13:45.664Z,3.3
2018-03-28T15:16:45.717Z,3.3
2018-03-28T15:19:45.675Z,3.3
2018-03-28T15:22:45.638Z,3.3
2018-03-28T15:25:45.685Z,3.3
2018-03-28T15:28:45.636Z,3.3
2018-03-28T15:31:45.715Z,3.3
2018-03-28T15:34:45.667Z,3.3
2018-03-28T15:37:45.703Z,3.3
2018-03-28T15:40:45.654Z,3.3
2018-03-28T15:43:45.644Z,3.3
2018-03-28T15:46:45.693Z,3.3
2018-03-28T15:49:45.653Z,3.3
2018-03-28T15:52:45.659Z,3.3
2018-03-28T15:55:45.653Z,3.3
2018-03-28T15:58:45.761Z,3.3
2018-03-28T16:01:45.666Z,3.3
2018-03-28T16:04:45.648Z,3.3
2018-03-28T16:07:45.670Z,3.3
2018-03-28T16:10:45.633Z,3.3
2018-03-28T16:13:45.627Z,3.3
2018-03-28T16:16:45.621Z,3.3
2018-03-28T16:19:45.677Z,3.3
2018-03-28T16:22:45.653Z,3.3
2018-03-28T16:25:45.646Z,3.3
2018-03-28T16:28:45.672Z,3.3
2018-03-28T16:31:45.781Z,3.3
2018-03-28T16:34:45.692Z,3.3
2018-03-28T16:37:45.680Z,3.3
2018-03-28T16:40:45.654Z,3.3
2018-03-28T16:43:45.659Z,3.3
2018-03-28T16:46:45.624Z,3.3
2018-03-28T16:49:45.638Z,3.3
2018-03-28T16:52:45.640Z,3.3
2018-03-28T16:55:45.626Z,3.3
2018-03-28T16:58:45.659Z,3.3
2018-03-28T17:01:46.295Z,3.3
2018-03-28T17:04:45.720Z,3.3
2018-03-28T17:07:46.558Z,3.3
2018-03-28T17:10:45.698Z,3.3
2018-03-28T17:13:45.630Z,3.3
2018-03-28T17:16:45.662Z,3.3
2018-03-28T17:19:45.621Z,3.3
2018-03-28T17:22:45.647Z,3.3
2018-03-28T17:25:45.913Z,3.3
2018-03-28T17:28:45.630Z,3.3
2018-03-28T17:31:45.636Z,3.3
2018-03-28T17:34:45.622Z,3.3
2018-03-28T17:37:45.629Z,3.3
2018-03-28T17:40:45.679Z,3.3
2018-03-28T17:43:45.794Z,3.3
2018-03-28T17:46:45.626Z,3.3
2018-03-28T17:49:45.606Z,3.3
2018-03-28T17:52:45.620Z,3.3
2018-03-28T17:55:45.632Z,3.3
2018-03-28T17:58:45.611Z,3.3
2018-03-28T18:01:45.914Z,3.5
2018-03-28T18:04:45.608Z,3.5
2018-03-28T18:07:45.599Z,3.5
2018-03-28T18:10:45.608Z,3.5
2018-03-28T18:13:45.588Z,3.5
2018-03-28T18:16:45.619Z,3.5
2018-03-28T18:19:45.636Z,3.5
2018-03-28T18:22:45.630Z,3.5
2018-03-28T18:25:45.673Z,3.5
2018-03-28T18:28:45.605Z,3.5
2018-03-28T18:31:45.593Z,3.5
2018-03-28T18:34:45.613Z,3.5
2018-03-28T18:37:45.596Z,3.5
2018-03-28T18:40:45.615Z,3.5
2018-03-28T18:43:45.789Z,3.5
2018-03-28T18:46:45.627Z,3.5
2018-03-28T18:49:45.602Z,3.5
2018-03-28T18:52:45.593Z,3.5
2018-03-28T18:55:45.591Z,3.5
2018-03-28T18:58:45.612Z,3.5
2018-03-28T19:01:46.270Z,3.5
2018-03-28T19:04:45.619Z,3.5
2018-03-28T19:07:45.628Z,3.5
2018-03-28T19:10:45.625Z,3.5
2018-03-28T19:13:45.661Z,3.5
2018-03-28T19:16:45.609Z,3.5
2018-03-28T19:19:45.637Z,3.5
2018-03-28T19:22:45.578Z,3.5
2018-03-28T19:25:45.657Z,3.5
2018-03-28T19:28:45.617Z,3.5
2018-03-28T19:31:45.644Z,3.5
2018-03-28T19:34:45.589Z,3.5
2018-03-28T19:37:45.594Z,3.5
2018-03-28T19:40:45.673Z,3.5
2018-03-28T19:43:45.573Z,3.5
2018-03-28T19:46:45.558Z,3.5
2018-03-28T19:49:45.576Z,3.5
2018-03-28T19:52:45.604Z,3.5
2018-03-28T19:55:45.594Z,3.5
2018-03-28T19:58:45.553Z,3.5
2018-03-28T20:01:45.669Z,3.6
2018-03-28T20:04:45.621Z,3.6
2018-03-28T20:07:45.575Z,3.6
2018-03-28T20:10:45.877Z,3.6
2018-03-28T20:13:45.572Z,3.6
2018-03-28T20:16:45.553Z,3.6
2018-03-28T20:19:45.624Z,3.6
2018-03-28T20:22:45.552Z,3.6
2018-03-28T20:25:45.598Z,3.6
2018-03-28T20:28:45.598Z,3.6
2018-03-28T20:31:45.539Z,3.6
2018-03-28T20:34:45.547Z,3.6
2018-03-28T20:37:45.573Z,3.6
2018-03-28T20:40:45.566Z,3.6
2018-03-28T20:43:45.617Z,3.6
2018-03-28T20:46:45.586Z,3.6
2018-03-28T20:49:45.549Z,3.6
2018-03-28T20:52:45.536Z,3.6
2018-03-28T20:55:45.650Z,3.6
2018-03-28T20:58:45.586Z,3.6
2018-03-28T21:01:45.568Z,3.4
2018-03-28T21:04:45.567Z,3.4
2018-03-28T21:07:45.555Z,3.4
2018-03-28T21:10:45.554Z,3.4
2018-03-28T21:13:45.545Z,3.4
2018-03-28T21:16:45.570Z,3.4
2018-03-28T21:19:45.589Z,3.4
2018-03-28T21:22:46.069Z,3.4
2018-03-28T21:25:45.544Z,3.4
2018-03-28T21:28:45.557Z,3.4
2018-03-28T21:31:45.545Z,3.4
2018-03-28T21:34:45.543Z,3.4
2018-03-28T21:37:45.575Z,3.4
2018-03-28T21:40:45.527Z,3.4
2018-03-28T21:43:45.569Z,3.4
2018-03-28T21:46:45.603Z,3.4
2018-03-28T21:49:45.795Z,3.4
2018-03-28T21:52:45.532Z,3.4
2018-03-28T21:55:45.577Z,3.4
2018-03-28T21:58:45.589Z,3.4
2018-03-28T22:01:45.683Z,3.4
2018-03-28T22:04:45.562Z,3.4
2018-03-28T22:07:45.524Z,3.4
2018-03-28T22:10:45.525Z,3.4
2018-03-28T22:13:45.597Z,3.4
2018-03-28T22:16:46.137Z,3.4
2018-03-28T22:19:45.523Z,3.4
2018-03-28T22:22:45.543Z,3.4
2018-03-28T22:25:45.570Z,3.4
2018-03-28T22:28:45.499Z,3.4
2018-03-28T22:31:45.521Z,3.4
2018-03-28T22:34:45.540Z,3.4
2018-03-28T22:37:45.522Z,3.4
2018-03-28T22:40:45.508Z,3.4
2018-03-28T22:43:45.541Z,3.4
2018-03-28T22:46:45.519Z,3.4
2018-03-28T22:49:45.540Z,3.4
2018-03-28T22:52:45.542Z,3.4
2018-03-28T22:55:45.517Z,3.4
2018-03-28T22:58:45.511Z,3.4
2018-03-28T23:01:45.520Z,3.3
2018-03-28T23:04:45.595Z,3.3
2018-03-28T23:07:45.553Z,3.3
2018-03-28T23:10:45.553Z,3.3
2018-03-28T23:13:45.502Z,3.3
2018-03-28T23:16:45.571Z,3.3
2018-03-28T23:19:45.602Z,3.3
2018-03-28T23:22:45.501Z,3.3
2018-03-28T23:25:45.517Z,3.3
2018-03-28T23:28:45.501Z,3.3
2018-03-28T23:31:45.511Z,3.3
2018-03-28T23:34:45.554Z,3.3
2018-03-28T23:37:45.553Z,3.3
2018-03-28T23:40:45.501Z,3.3
2018-03-28T23:43:45.529Z,3.3
2018-03-28T23:46:45.499Z,3.3
2018-03-28T23:49:45.516Z,3.3
2018-03-28T23:52:45.527Z,3.3
2018-03-28T23:55:45.498Z,3.3
2018-03-28T23:58:45.537Z,3.3
